METAR Data
IDs: Format: Raw Decoded Include TAF

Data at: 1103 UTC 26 Sep 2018

KMQJ 261056Z AUTO 33009G18KT 3SM OVC009 17/17 A3001 RMK AO1
KMQJ 261055Z AUTO 33011G18KT 4SM OVC009 17/17 A3001 RMK AO1
KMQJ 261036Z AUTO 31010G14KT 7SM BKN011 OVC015 18/18 A3000 RMK AO1
KMQJ 261035Z AUTO 31010G14KT 7SM BKN011 OVC015 18/18 A3000 RMK AO1
KMQJ 261017Z AUTO 30008KT 10SM SCT011 BKN015 OVC023 19/19 A2999 RMK AO1
KMQJ 260956Z AUTO 29005KT 10SM SCT007 SCT014 OVC023 19/19 A2998 RMK AO1
KMQJ 260955Z AUTO 29005KT 10SM SCT009 SCT014 OVC023 19/19 A2998 RMK AO1
KMQJ 260936Z AUTO 28007KT 10SM SCT009 BKN017 OVC021 19/19 A2997 RMK AO1
KMQJ 260935Z AUTO 28006KT 10SM SCT009 OVC017 19/19 A2997 RMK AO1
KMQJ 260917Z AUTO 30006KT 10SM SCT009 OVC015 19/19 A2996 RMK AO1
KMQJ 260857Z AUTO 30007KT 10SM BKN009 OVC015 19/19 A2994 RMK AO1
KMQJ 260836Z AUTO 30007KT 10SM BKN007 OVC013 19/19 A2994 RMK AO1
KMQJ 260835Z AUTO 30007KT 10SM BKN007 OVC013 19/19 A2994 RMK AO1
KMQJ 260816Z AUTO 28006KT 10SM SCT007 BKN015 OVC095 19/19 A2993 RMK AO1
KMQJ 260815Z AUTO 29006KT 10SM BKN009 BKN015 OVC095 19/19 A2994 RMK AO1
KMQJ 260757Z AUTO 27005KT 10SM SCT017 BKN050 OVC095 19/19 A2993 RMK AO1
KMQJ 260736Z AUTO 27005KT 10SM SCT011 BKN019 OVC070 19/19 A2994 RMK AO1
KMQJ 260735Z AUTO 27005KT 10SM SCT011 BKN019 OVC070 19/19 A2994 RMK AO1
KMQJ 260716Z AUTO 23004KT 10SM SCT013 BKN060 OVC070 19/19 A2993 RMK AO1
KMQJ 260715Z AUTO 23004KT 10SM BKN013 BKN050 OVC070 19/19 A2993 RMK AO1
KMQJ 260657Z AUTO 21005KT 10SM OVC013 19/19 A2994 RMK AO1
KMQJ 260636Z AUTO 23003KT 10SM OVC015 19/19 A2994 RMK AO1
KMQJ 260635Z AUTO 23003KT 10SM OVC017 19/19 A2994 RMK AO1
KMQJ 260616Z AUTO 00000KT 10SM SCT017 BKN021 OVC032 19/19 A2994 RMK AO1
KMQJ 260615Z AUTO 30003KT 10SM SCT017 BKN021 OVC032 19/19 A2994 RMK AO1
KMQJ 260556Z AUTO 19003KT 10SM SCT029 BKN044 OVC090 19/19 A2993 RMK AO1
KMQJ 260555Z AUTO 19003KT 10SM SCT029 BKN044 OVC090 19/19 A2993 RMK AO1
KMQJ 260536Z AUTO 19006KT 10SM SCT046 SCT055 OVC090 19/19 A2993 RMK AO1
KMQJ 260535Z AUTO 19006KT 10SM SCT065 SCT070 OVC090 19/19 A2993 RMK AO1
KMQJ 260516Z AUTO 16004KT 10SM SCT042 BKN055 OVC090 19/19 A2993 RMK AO1
KMQJ 260515Z AUTO 16003KT 10SM SCT042 BKN055 OVC090 19/19 A2993 RMK AO1
KMQJ 260456Z AUTO 00000KT 5SM SCT022 BKN037 OVC055 19/19 A2994 RMK AO1
KMQJ 260455Z AUTO 00000KT 5SM SCT022 BKN039 OVC055 19/19 A2994 RMK AO1
KMQJ 260436Z AUTO 28009G15KT 2 1/2SM SCT008 BKN031 OVC040 19/19 A2996 RMK AO1 VIS 3/4V5
KMQJ 260435Z AUTO 28010G15KT 2SM SCT008 BKN023 OVC035 19/19 A2996 RMK AO1 VIS 3/4V5
KMQJ 260417Z AUTO 30010KT 7SM SCT009 BKN038 OVC045 20/20 A2996 RMK AO1
KMQJ 260356Z AUTO 28009G14KT 10SM BKN011 OVC014 22/22 A2995 RMK AO1
KMQJ 260355Z AUTO 29009G14KT 10SM BKN011 OVC014 22/22 A2995 RMK AO1
KMQJ 260336Z AUTO 20007KT 10SM OVC012 22/22 A2993 RMK AO1
KMQJ 260335Z AUTO 19007KT 10SM OVC012 22/22 A2993 RMK AO1
KMQJ 260317Z AUTO 19008KT 10SM OVC014 22/22 A2993 RMK AO1
KMQJ 260256Z AUTO 19009KT 10SM BKN016 OVC110 22/22 A2993 RMK AO1
KMQJ 260255Z AUTO 19008KT 10SM BKN016 OVC110 22/22 A2993 RMK AO1
KMQJ 260236Z AUTO 19006KT 10SM SCT016 SCT055 BKN110 22/22 A2993 RMK AO1
KMQJ 260235Z AUTO 19007KT 10SM SCT016 SCT055 BKN110 22/22 A2993 RMK AO1
KMQJ 260217Z AUTO 19007KT 10SM SCT018 BKN120 22/22 A2993 RMK AO1
KMQJ 260156Z AUTO 19007KT 10SM SCT023 BKN070 BKN080 22/22 A2994 RMK AO1
KMQJ 260155Z AUTO 20008KT 10SM SCT019 SCT023 BKN070 22/22 A2993 RMK AO1
KMQJ 260136Z AUTO 18008KT 10SM BKN017 OVC025 22/22 A2993 RMK AO1
KMQJ 260135Z AUTO 18006KT 10SM BKN017 OVC025 22/22 A2993 RMK AO1
KMQJ 260117Z AUTO 19004KT 10SM BKN017 OVC021 22/22 A2994 RMK AO1
KMQJ 260057Z AUTO 21004KT 10SM OVC021 22/22 A2992 RMK AO1
KMQJ 260036Z AUTO 20006G14KT 10SM BKN021 BKN060 OVC110 23/23 A2992 RMK AO1
KMQJ 260035Z AUTO 20007G14KT 10SM BKN021 BKN060 OVC110 23/23 A2992 RMK AO1
KMQJ 260016Z AUTO 18005KT 10SM SCT060 BKN110 22/22 A2992 RMK AO1
KMQJ 260015Z AUTO 19004KT 10SM SCT070 BKN110 22/22 A2992 RMK AO1
KMQJ 252357Z AUTO 21004KT 10SM SCT065 BKN090 BKN120 23/23 A2993 RMK AO1
KMQJ 252355Z AUTO 22005KT 10SM SCT065 BKN090 23/23 A2993 RMK AO1
KMQJ 252336Z AUTO 19007KT 10SM SCT021 SCT070 BKN090 23/23 A2992 RMK AO1
KMQJ 252335Z AUTO 19007KT 10SM SCT021 SCT070 BKN090 23/23 A2992 RMK AO1
KMQJ 252316Z AUTO 20005KT 10SM SCT024 SCT070 SCT090 23/23 A2992 RMK AO1
KMQJ 252315Z AUTO 20006KT 10SM SCT024 SCT070 SCT090 23/23 A2992 RMK AO1
KMQJ 252256Z AUTO 21007KT 10SM SCT024 23/23 A2992 RMK AO1
KMQJ 252255Z AUTO 20007KT 10SM SCT024 23/23 A2992 RMK AO1
KMQJ 252236Z AUTO 21014KT 10SM SCT024 SCT029 24/23 A2992 RMK AO1
KMQJ 252235Z AUTO 21015KT 10SM SCT026 24/23 A2992 RMK AO1
KMQJ 252216Z AUTO 20008G15KT 10SM BKN028 24/23 A2991 RMK AO1
KMQJ 252215Z AUTO 21008G15KT 10SM BKN028 24/23 A2991 RMK AO1
KMQJ 252156Z AUTO 20008KT 10SM OVC030 24/23 A2991 RMK AO1
KMQJ 252155Z AUTO 21008KT 10SM OVC030 24/23 A2991 RMK AO1
KMQJ 252136Z AUTO 20010G17KT 10SM OVC030 24/23 A2990 RMK AO1
KMQJ 252135Z AUTO 19013G17KT 10SM OVC030 24/23 A2990 RMK AO1
KMQJ 252117Z AUTO 20008G14KT 10SM SCT016 BKN025 OVC030 23/23 A2991 RMK AO1
KMQJ 252056Z AUTO 20009KT 10SM BKN016 BKN020 OVC031 23/23 A2991 RMK AO1
KMQJ 252055Z AUTO 21009KT 10SM BKN016 BKN020 OVC026 23/23 A2991 RMK AO1
KMQJ 252036Z AUTO 21008KT 10SM SCT014 SCT019 OVC032 23/23 A2991 RMK AO1
KMQJ 252035Z AUTO 21008KT 10SM SCT014 OVC032 23/23 A2991 RMK AO1
KMQJ 252016Z AUTO 19010G14KT 10SM SCT014 SCT022 BKN030 24/24 A2992 RMK AO1
KMQJ 252015Z AUTO 20009G14KT 10SM SCT014 SCT022 BKN030 24/24 A2992 RMK AO1
KMQJ 251957Z AUTO 20007G14KT 10SM SCT011 BKN020 OVC029 22/22 A2993 RMK AO1
KMQJ 251936Z AUTO 19007G17KT 10SM BKN009 OVC013 22/22 A2993 RMK AO1
KMQJ 251935Z AUTO 20009G17KT 10SM BKN009 OVC013 22/22 A2993 RMK AO1
KMQJ 251916Z AUTO 19007KT 10SM OVC008 22/22 A2993 RMK AO1
KMQJ 251915Z AUTO 20007KT 10SM BKN008 OVC014 22/22 A2994 RMK AO1
KMQJ 251856Z AUTO 19010G14KT 10SM OVC010 22/22 A2994 RMK AO1
KMQJ 251855Z AUTO 18009G14KT 10SM OVC010 22/22 A2994 RMK AO1
KMQJ 251836Z AUTO 18005KT 10SM SCT008 BKN012 OVC017 22/22 A2994 RMK AO1
KMQJ 251835Z AUTO 19005KT 10SM BKN008 BKN012 OVC017 22/22 A2994 RMK AO1
KMQJ 251816Z AUTO 17004KT 7SM SCT006 SCT011 BKN016 22/22 A2997 RMK AO1
KMQJ 251815Z AUTO 18005KT 7SM SCT006 BKN011 BKN016 22/22 A2997 RMK AO1
KMQJ 251756Z AUTO 17009KT 10SM SCT016 SCT120 22/22 A2999 RMK AO1
KMQJ 251755Z AUTO 18007KT 10SM SCT007 SCT016 SCT026 22/22 A2999 RMK AO1
KMQJ 251736Z AUTO 15005KT 5SM SCT008 BKN019 BKN035 22/22 A2999 RMK AO1
KMQJ 251735Z AUTO 14006KT 5SM SCT008 BKN019 BKN028 22/22 A2999 RMK AO1
KMQJ 251716Z AUTO 16007KT 7SM BKN008 OVC014 22/22 A3001 RMK AO1
KMQJ 251656Z AUTO 17005KT 7SM SCT008 OVC014 22/22 A3001 RMK AO1
KMQJ 251655Z AUTO 17005KT 7SM SCT008 OVC014 22/22 A3001 RMK AO1
KMQJ 251636Z AUTO 19005KT 5SM BKN008 BKN014 OVC025 22/22 A3002 RMK AO1
KMQJ 251635Z AUTO 19005KT 5SM BKN008 BKN012 OVC025 22/22 A3002 RMK AO1
KMQJ 251617Z AUTO 20006KT 7SM BKN008 BKN012 OVC037 22/22 A3003 RMK AO1
KMQJ 251556Z AUTO 19006KT 7SM BKN008 OVC011 21/21 A3001 RMK AO1
KMQJ 251555Z AUTO 19005KT 7SM BKN008 OVC011 21/21 A3001 RMK AO1
KMQJ 251536Z AUTO 18005KT 7SM OVC008 22/22 A3001 RMK AO1
KMQJ 251535Z AUTO 17006KT 7SM OVC008 22/22 A3001 RMK AO1
KMQJ 251516Z AUTO 20006KT 7SM OVC006 21/21 A3001 RMK AO1
KMQJ 251515Z AUTO 20006KT 7SM OVC006 21/21 A3001 RMK AO1
KMQJ 251457Z AUTO 18007G15KT 5SM OVC006 21/21 A3002 RMK AO1
KMQJ 251436Z AUTO 19009KT 7SM OVC006 21/21 A3001 RMK AO1
KMQJ 251435Z AUTO 19010KT 7SM OVC006 21/21 A3001 RMK AO1
KMQJ 251416Z AUTO 20007KT 5SM OVC006 21/21 A3001 RMK AO1
KMQJ 251415Z AUTO 20006KT 5SM OVC006 21/21 A3000 RMK AO1
KMQJ 251356Z AUTO 19008KT 5SM OVC006 21/21 A3001 RMK AO1
KMQJ 251355Z AUTO 19010KT 5SM OVC006 21/21 A3001 RMK AO1
KMQJ 251336Z AUTO 19007KT 7SM OVC006 21/21 A3001 RMK AO1
KMQJ 251335Z AUTO 19007KT 7SM OVC006 21/21 A3000 RMK AO1
KMQJ 251316Z AUTO 18008KT 7SM OVC006 21/21 A3001 RMK AO1
KMQJ 251315Z AUTO 19008KT 7SM OVC006 21/21 A3001 RMK AO1
KMQJ 251256Z AUTO 18006KT 7SM BKN006 OVC012 21/21 A3000 RMK AO1
KMQJ 251255Z AUTO 18005KT 7SM OVC006 21/21 A3000 RMK AO1
KMQJ 251236Z AUTO 20006KT 7SM OVC006 21/21 A3001 RMK AO1
KMQJ 251235Z AUTO 20006KT 7SM OVC006 21/21 A3001 RMK AO1
KMQJ 251216Z AUTO 19007KT 7SM BKN006 OVC009 21/21 A3001 RMK AO1
KMQJ 251215Z AUTO 19006KT 7SM BKN006 OVC009 21/21 A3001 RMK AO1
KMQJ 251156Z AUTO 19006KT 7SM OVC009 21/21 A3000 RMK AO1
KMQJ 251155Z AUTO 19005KT 7SM OVC011 21/21 A3000 RMK AO1
KMQJ 251136Z AUTO 19007KT 7SM BKN008 OVC011 21/21 A2999 RMK AO1
KMQJ 251135Z AUTO 19006KT 7SM OVC011 21/21 A2999 RMK AO1
KMQJ 251116Z AUTO 19006KT 7SM OVC009 21/21 A3000 RMK AO1
KMQJ 251115Z AUTO 18006KT 7SM OVC007 21/21 A2999 RMK AO1
KMQJ 251056Z AUTO 18006KT 7SM OVC007 21/21 A3000 RMK AO1
KMQJ 251055Z AUTO 18006KT 10SM OVC007 21/21 A3000 RMK AO1
KMQJ 251036Z AUTO 19007KT 10SM OVC009 20/20 A3000 RMK AO1
KMQJ 251035Z AUTO 19007KT 10SM OVC009 20/20 A3000 RMK AO1
KMQJ 251017Z AUTO 16004KT 7SM BKN009 BKN015 OVC029 20/20 A3000 RMK AO1
KMQJ 250956Z AUTO 17006KT 1 1/4SM SCT005 BKN008 OVC022 20/20 A3000 RMK AO1
KMQJ 250955Z AUTO 17007KT 1 1/4SM SCT005 BKN008 OVC022 21/21 A3000 RMK AO1
KMQJ 250936Z AUTO 21008G14KT 2 1/2SM BKN005 OVC017 21/21 A3000 RMK AO1
KMQJ 250935Z AUTO 20008G14KT 2 1/2SM BKN005 BKN008 OVC017 21/21 A3000 RMK AO1
KMQJ 250917Z AUTO 21007KT 3SM BKN007 BKN015 OVC050 21/21 A2999 RMK AO1
KMQJ 250915Z AUTO 20006KT 3SM BKN007 BKN015 OVC050 21/21 A2999 RMK AO1
KMQJ 250856Z AUTO 20009KT 7SM BKN007 BKN031 OVC055 21/21 A2999 RMK AO1
KMQJ 250855Z AUTO 20009KT 7SM BKN007 BKN031 OVC048 21/21 A2999 RMK AO1
KMQJ 250836Z AUTO 19008G15KT 7SM BKN007 OVC011 21/21 A2999 RMK AO1
KMQJ 250835Z AUTO 19009G15KT 7SM BKN007 OVC011 21/21 A2999 RMK AO1
KMQJ 250816Z AUTO 18007KT 7SM OVC007 21/21 A2999 RMK AO1
KMQJ 250815Z AUTO 18007KT 7SM OVC007 21/21 A2999 RMK AO1
KMQJ 250756Z AUTO 19008KT 7SM OVC007 21/21 A2999 RMK AO1
KMQJ 250755Z AUTO 18008KT 7SM OVC007 21/21 A2999 RMK AO1
KMQJ 250736Z AUTO 18007KT 7SM OVC007 21/21 A2999 RMK AO1
KMQJ 250735Z AUTO 18008KT 7SM OVC007 21/21 A2999 RMK AO1
KMQJ 250716Z AUTO 18008KT 7SM BKN007 OVC010 21/21 A2999 RMK AO1
KMQJ 250715Z AUTO 17007KT 7SM OVC007 21/21 A2999 RMK AO1
KMQJ 250656Z AUTO 18008KT 150V210 7SM BKN007 OVC010 21/21 A3000 RMK AO1
KMQJ 250655Z AUTO 18007KT 150V210 7SM BKN007 OVC010 21/21 A3000 RMK AO1
KMQJ 250636Z AUTO 19009KT 7SM OVC007 21/21 A3000 RMK AO1
KMQJ 250635Z AUTO 18007KT 7SM OVC007 21/21 A3000 RMK AO1
KMQJ 250616Z AUTO 19006KT 7SM OVC005 21/21 A3000 RMK AO1
KMQJ 250615Z AUTO 19007KT 7SM OVC005 21/21 A3000 RMK AO1
KMQJ 250556Z AUTO 19008KT 7SM OVC005 21/21 A3000 RMK AO1
KMQJ 250555Z AUTO 18007KT 7SM OVC007 21/21 A3000 RMK AO1
KMQJ 250536Z AUTO 18009KT 7SM BKN005 OVC009 21/21 A3000 RMK AO1
KMQJ 250535Z AUTO 18008KT 7SM BKN005 OVC009 21/21 A3000 RMK AO1
KMQJ 250516Z AUTO 18008KT 7SM BKN005 BKN011 OVC070 21/21 A3000 RMK AO1
KMQJ 250515Z AUTO 17008KT 7SM BKN005 BKN011 OVC070 21/21 A3000 RMK AO1
KMQJ 250456Z AUTO 19006KT 7SM SCT007 SCT019 OVC070 21/21 A3001 RMK AO1
KMQJ 250455Z AUTO 19006KT 7SM SCT007 SCT019 OVC070 21/21 A3001 RMK AO1
KMQJ 250436Z AUTO 18006KT 7SM SCT007 BKN021 OVC065 21/21 A3001 RMK AO1
KMQJ 250435Z AUTO 18006KT 7SM SCT007 BKN021 OVC065 21/21 A3001 RMK AO1
KMQJ 250416Z AUTO 20007KT 7SM BKN007 OVC025 21/21 A3001 RMK AO1
KMQJ 250415Z AUTO 20007KT 7SM BKN007 BKN014 OVC025 21/21 A3001 RMK AO1
KMQJ 250356Z AUTO 20006KT 7SM OVC009 21/21 A3001 RMK AO1
KMQJ 250355Z AUTO 20007KT 7SM OVC009 21/21 A3001 RMK AO1
KMQJ 250337Z AUTO 19009G14KT 7SM SCT004 BKN009 OVC013 21/21 A3001 RMK AO1
KMQJ 250316Z AUTO 20004KT 4SM SCT006 BKN013 OVC022 21/21 A3001 RMK AO1
KMQJ 250315Z AUTO 21004KT 3SM SCT006 BKN013 OVC027 21/21 A3001 RMK AO1
KMQJ 250256Z AUTO 21008KT 2 1/2SM SCT013 SCT020 OVC029 21/21 A3000 RMK AO1
KMQJ 250255Z AUTO 20008KT 3SM SCT013 SCT020 OVC029 21/21 A3000 RMK AO1
KMQJ 250236Z AUTO 18007KT 7SM SCT005 SCT011 OVC032 21/21 A3000 RMK AO1
KMQJ 250235Z AUTO 18008KT 10SM SCT005 SCT011 OVC032 21/21 A3000 RMK AO1
KMQJ 250216Z AUTO 19005KT 7SM OVC005 21/21 A2999 RMK AO1
KMQJ 250156Z AUTO 18007KT 10SM OVC005 21/21 A2999 RMK AO1
KMQJ 250155Z AUTO 19007KT 10SM OVC005 21/21 A2999 RMK AO1
KMQJ 250136Z AUTO 19006KT 10SM OVC005 20/20 A2999 RMK AO1
KMQJ 250135Z AUTO 19006KT 10SM OVC005 20/20 A2999 RMK AO1
KMQJ 250117Z AUTO 19007KT 7SM BKN005 OVC010 20/20 A2998 RMK AO1
KMQJ 250056Z AUTO 15007KT 3SM OVC007 20/20 A2997 RMK AO1
KMQJ 250055Z AUTO 15006KT 4SM OVC007 20/20 A2997 RMK AO1
KMQJ 250036Z AUTO 15006KT 10SM OVC007 20/20 A2997 RMK AO1
KMQJ 250035Z AUTO 15005KT 10SM OVC007 20/20 A2997 RMK AO1
KMQJ 250016Z AUTO 15006KT 4SM OVC006 20/20 A2997 RMK AO1
KMQJ 250015Z AUTO 14005KT 4SM BKN006 OVC010 20/20 A2997 RMK AO1
KMQJ 242356Z AUTO 15005KT 7SM BKN010 OVC014 20/20 A2997 RMK AO1
KMQJ 242355Z AUTO 15005KT 7SM BKN010 OVC014 20/20 A2997 RMK AO1
KMQJ 242336Z AUTO 15005KT 10SM OVC008 20/20 A2997 RMK AO1
KMQJ 242335Z AUTO 15006KT 10SM OVC008 20/20 A2997 RMK AO1
KMQJ 242316Z AUTO 15005KT 5SM SCT005 OVC012 20/20 A2998 RMK AO1
KMQJ 242315Z AUTO 15005KT 5SM SCT005 OVC012 20/20 A2998 RMK AO1